sensor_id;sensor_type;location;lat;lon;timestamp;P1;durP1;ratioP1;P2;durP2;ratioP2
33952;SDS011;20231;42.710;23.280;2022-12-05T00:00:12;14.15;;;7.53;;
33952;SDS011;20231;42.710;23.280;2022-12-05T00:02:38;11.40;;;8.23;;
33952;SDS011;20231;42.710;23.280;2022-12-05T00:05:04;13.23;;;8.23;;
33952;SDS011;20231;42.710;23.280;2022-12-05T00:07:30;12.55;;;7.63;;
33952;SDS011;20231;42.710;23.280;2022-12-05T00:09:55;14.30;;;7.97;;
33952;SDS011;20231;42.710;23.280;2022-12-05T00:12:21;15.65;;;9.02;;
33952;SDS011;20231;42.710;23.280;2022-12-05T00:14:46;15.65;;;8.23;;
33952;SDS011;20231;42.710;23.280;2022-12-05T00:17:11;14.98;;;7.93;;
33952;SDS011;20231;42.710;23.280;2022-12-05T00:19:37;13.65;;;8.23;;
33952;SDS011;20231;42.710;23.280;2022-12-05T00:22:03;13.82;;;7.78;;
33952;SDS011;20231;42.710;23.280;2022-12-05T00:24:28;16.20;;;8.23;;
33952;SDS011;20231;42.710;23.280;2022-12-05T00:26:54;13.63;;;8.88;;
33952;SDS011;20231;42.710;23.280;2022-12-05T00:29:19;13.35;;;7.53;;
33952;SDS011;20231;42.710;23.280;2022-12-05T00:31:45;14.50;;;8.30;;
33952;SDS011;20231;42.710;23.280;2022-12-05T00:34:10;11.82;;;8.05;;
33952;SDS011;20231;42.710;23.280;2022-12-05T00:36:36;13.57;;;7.93;;
33952;SDS011;20231;42.710;23.280;2022-12-05T00:39:06;13.27;;;7.30;;
33952;SDS011;20231;42.710;23.280;2022-12-05T00:41:34;14.52;;;8.32;;
33952;SDS011;20231;42.710;23.280;2022-12-05T00:44:00;13.05;;;7.95;;
33952;SDS011;20231;42.710;23.280;2022-12-05T00:46:27;13.02;;;7.47;;
33952;SDS011;20231;42.710;23.280;2022-12-05T00:48:54;14.80;;;7.72;;
33952;SDS011;20231;42.710;23.280;2022-12-05T00:51:23;13.60;;;8.25;;
33952;SDS011;20231;42.710;23.280;2022-12-05T00:53:53;13.82;;;8.75;;
33952;SDS011;20231;42.710;23.280;2022-12-05T00:56:21;12.40;;;7.65;;
33952;SDS011;20231;42.710;23.280;2022-12-05T00:58:48;15.75;;;8.00;;
33952;SDS011;20231;42.710;23.280;2022-12-05T01:01:18;13.05;;;8.10;;
33952;SDS011;20231;42.710;23.280;2022-12-05T01:03:46;15.07;;;8.32;;
33952;SDS011;20231;42.710;23.280;2022-12-05T01:06:12;15.65;;;8.40;;
33952;SDS011;20231;42.710;23.280;2022-12-05T01:08:39;15.85;;;8.02;;
33952;SDS011;20231;42.710;23.280;2022-12-05T01:11:05;14.65;;;8.50;;
33952;SDS011;20231;42.710;23.280;2022-12-05T01:13:32;13.93;;;8.43;;
33952;SDS011;20231;42.710;23.280;2022-12-05T01:15:58;13.32;;;8.45;;
33952;SDS011;20231;42.710;23.280;2022-12-05T01:18:24;15.02;;;8.57;;
33952;SDS011;20231;42.710;23.280;2022-12-05T01:20:50;16.20;;;9.07;;
33952;SDS011;20231;42.710;23.280;2022-12-05T01:23:16;15.82;;;8.55;;
33952;SDS011;20231;42.710;23.280;2022-12-05T01:25:43;16.40;;;8.25;;
33952;SDS011;20231;42.710;23.280;2022-12-05T01:28:11;16.63;;;8.90;;
33952;SDS011;20231;42.710;23.280;2022-12-05T01:30:38;13.32;;;8.70;;
33952;SDS011;20231;42.710;23.280;2022-12-05T01:33:06;15.90;;;8.15;;
33952;SDS011;20231;42.710;23.280;2022-12-05T01:35:33;12.57;;;7.28;;
33952;SDS011;20231;42.710;23.280;2022-12-05T01:38:00;12.02;;;7.65;;
33952;SDS011;20231;42.710;23.280;2022-12-05T01:40:25;14.18;;;7.90;;
33952;SDS011;20231;42.710;23.280;2022-12-05T01:42:51;16.15;;;8.45;;
33952;SDS011;20231;42.710;23.280;2022-12-05T01:45:20;14.05;;;8.10;;
33952;SDS011;20231;42.710;23.280;2022-12-05T01:47:56;14.68;;;8.60;;
33952;SDS011;20231;42.710;23.280;2022-12-05T01:50:21;13.65;;;7.65;;
33952;SDS011;20231;42.710;23.280;2022-12-05T01:52:47;15.27;;;8.85;;
33952;SDS011;20231;42.710;23.280;2022-12-05T01:55:13;14.65;;;7.93;;
33952;SDS011;20231;42.710;23.280;2022-12-05T01:57:42;15.68;;;8.32;;
33952;SDS011;20231;42.710;23.280;2022-12-05T02:00:13;15.02;;;8.20;;
33952;SDS011;20231;42.710;23.280;2022-12-05T02:02:42;14.60;;;8.25;;
33952;SDS011;20231;42.710;23.280;2022-12-05T02:05:17;14.85;;;8.15;;
33952;SDS011;20231;42.710;23.280;2022-12-05T02:07:55;16.23;;;8.10;;
33952;SDS011;20231;42.710;23.280;2022-12-05T02:10:23;19.08;;;8.80;;
33952;SDS011;20231;42.710;23.280;2022-12-05T02:12:49;13.93;;;8.02;;
33952;SDS011;20231;42.710;23.280;2022-12-05T02:20:59;16.60;;;9.25;;
33952;SDS011;20231;42.710;23.280;2022-12-05T02:26:24;14.95;;;8.02;;
33952;SDS011;20231;42.710;23.280;2022-12-05T02:29:08;13.35;;;8.15;;
33952;SDS011;20231;42.710;23.280;2022-12-05T02:37:26;15.13;;;8.40;;
33952;SDS011;20231;42.710;23.280;2022-12-05T02:40:04;16.23;;;8.90;;
33952;SDS011;20231;42.710;23.280;2022-12-05T02:42:51;13.55;;;8.30;;
33952;SDS011;20231;42.710;23.280;2022-12-05T02:45:24;15.45;;;8.02;;
33952;SDS011;20231;42.710;23.280;2022-12-05T02:47:53;17.05;;;8.85;;
33952;SDS011;20231;42.710;23.280;2022-12-05T02:50:20;16.02;;;8.95;;
33952;SDS011;20231;42.710;23.280;2022-12-05T02:52:49;18.17;;;8.50;;
33952;SDS011;20231;42.710;23.280;2022-12-05T02:55:18;19.98;;;9.60;;
33952;SDS011;20231;42.710;23.280;2022-12-05T02:57:47;17.13;;;8.77;;
33952;SDS011;20231;42.710;23.280;2022-12-05T03:00:17;16.00;;;9.73;;
33952;SDS011;20231;42.710;23.280;2022-12-05T03:02:43;17.65;;;9.57;;
33952;SDS011;20231;42.710;23.280;2022-12-05T03:05:14;17.52;;;10.38;;
33952;SDS011;20231;42.710;23.280;2022-12-05T03:07:47;15.80;;;9.23;;
33952;SDS011;20231;42.710;23.280;2022-12-05T03:10:16;16.40;;;9.50;;
33952;SDS011;20231;42.710;23.280;2022-12-05T03:12:46;17.13;;;9.80;;
33952;SDS011;20231;42.710;23.280;2022-12-05T03:15:24;18.45;;;9.35;;
33952;SDS011;20231;42.710;23.280;2022-12-05T03:17:56;16.42;;;8.98;;
33952;SDS011;20231;42.710;23.280;2022-12-05T03:20:32;14.50;;;8.15;;
33952;SDS011;20231;42.710;23.280;2022-12-05T03:28:21;14.57;;;7.85;;
33952;SDS011;20231;42.710;23.280;2022-12-05T03:30:54;18.20;;;8.88;;
33952;SDS011;20231;42.710;23.280;2022-12-05T03:33:25;18.13;;;8.50;;
33952;SDS011;20231;42.710;23.280;2022-12-05T03:38:34;12.60;;;7.47;;
33952;SDS011;20231;42.710;23.280;2022-12-05T03:41:24;15.90;;;8.15;;
33952;SDS011;20231;42.710;23.280;2022-12-05T03:46:47;16.90;;;8.15;;
33952;SDS011;20231;42.710;23.280;2022-12-05T03:52:05;16.85;;;8.07;;
33952;SDS011;20231;42.710;23.280;2022-12-05T03:54:36;16.58;;;8.57;;
33952;SDS011;20231;42.710;23.280;2022-12-05T04:00:08;17.45;;;8.27;;
33952;SDS011;20231;42.710;23.280;2022-12-05T04:03:00;17.33;;;9.02;;
33952;SDS011;20231;42.710;23.280;2022-12-05T04:08:06;14.85;;;7.97;;
33952;SDS011;20231;42.710;23.280;2022-12-05T04:10:38;18.98;;;8.48;;
33952;SDS011;20231;42.710;23.280;2022-12-05T04:13:17;13.68;;;8.18;;
33952;SDS011;20231;42.710;23.280;2022-12-05T04:19:12;13.68;;;7.88;;
33952;SDS011;20231;42.710;23.280;2022-12-05T04:21:44;15.57;;;8.43;;
33952;SDS011;20231;42.710;23.280;2022-12-05T04:24:17;15.10;;;8.45;;
33952;SDS011;20231;42.710;23.280;2022-12-05T04:30:02;15.57;;;8.18;;
33952;SDS011;20231;42.710;23.280;2022-12-05T04:32:36;14.82;;;8.00;;
33952;SDS011;20231;42.710;23.280;2022-12-05T04:35:12;16.45;;;8.35;;
33952;SDS011;20231;42.710;23.280;2022-12-05T04:37:52;18.42;;;8.63;;
33952;SDS011;20231;42.710;23.280;2022-12-05T04:41:08;16.10;;;8.30;;
33952;SDS011;20231;42.710;23.280;2022-12-05T04:43:18;17.10;;;8.32;;
33952;SDS011;20231;42.710;23.280;2022-12-05T04:45:45;14.35;;;8.13;;
33952;SDS011;20231;42.710;23.280;2022-12-05T04:48:14;13.07;;;7.55;;
33952;SDS011;20231;42.710;23.280;2022-12-05T04:50:42;16.90;;;8.68;;
33952;SDS011;20231;42.710;23.280;2022-12-05T04:53:10;15.88;;;8.85;;
33952;SDS011;20231;42.710;23.280;2022-12-05T04:55:38;17.92;;;8.18;;
33952;SDS011;20231;42.710;23.280;2022-12-05T04:58:09;16.75;;;8.30;;
33952;SDS011;20231;42.710;23.280;2022-12-05T05:06:13;12.68;;;7.78;;
33952;SDS011;20231;42.710;23.280;2022-12-05T05:08:49;17.73;;;8.05;;
33952;SDS011;20231;42.710;23.280;2022-12-05T05:11:20;14.55;;;8.20;;
33952;SDS011;20231;42.710;23.280;2022-12-05T05:13:49;17.25;;;8.95;;
33952;SDS011;20231;42.710;23.280;2022-12-05T05:16:16;15.77;;;9.05;;
33952;SDS011;20231;42.710;23.280;2022-12-05T05:18:46;14.70;;;7.97;;
33952;SDS011;20231;42.710;23.280;2022-12-05T05:21:16;14.07;;;8.30;;
33952;SDS011;20231;42.710;23.280;2022-12-05T05:23:45;15.27;;;8.68;;
33952;SDS011;20231;42.710;23.280;2022-12-05T05:26:10;15.25;;;8.43;;
33952;SDS011;20231;42.710;23.280;2022-12-05T05:28:36;20.58;;;9.45;;
33952;SDS011;20231;42.710;23.280;2022-12-05T05:31:02;17.25;;;8.32;;
33952;SDS011;20231;42.710;23.280;2022-12-05T05:33:29;14.48;;;8.43;;
33952;SDS011;20231;42.710;23.280;2022-12-05T05:35:54;14.95;;;8.23;;
33952;SDS011;20231;42.710;23.280;2022-12-05T05:38:20;14.57;;;7.85;;
33952;SDS011;20231;42.710;23.280;2022-12-05T05:40:45;16.15;;;8.40;;
33952;SDS011;20231;42.710;23.280;2022-12-05T05:43:10;14.43;;;8.20;;
33952;SDS011;20231;42.710;23.280;2022-12-05T05:45:36;18.13;;;7.80;;
33952;SDS011;20231;42.710;23.280;2022-12-05T05:48:01;18.33;;;8.32;;
33952;SDS011;20231;42.710;23.280;2022-12-05T05:50:27;17.40;;;9.27;;
33952;SDS011;20231;42.710;23.280;2022-12-05T05:52:52;18.08;;;8.95;;
33952;SDS011;20231;42.710;23.280;2022-12-05T05:55:18;16.75;;;9.40;;
33952;SDS011;20231;42.710;23.280;2022-12-05T05:57:43;17.40;;;8.43;;
33952;SDS011;20231;42.710;23.280;2022-12-05T06:00:09;15.75;;;8.80;;
33952;SDS011;20231;42.710;23.280;2022-12-05T06:02:35;21.77;;;9.80;;
33952;SDS011;20231;42.710;23.280;2022-12-05T06:05:01;20.25;;;9.27;;
33952;SDS011;20231;42.710;23.280;2022-12-05T06:07:27;18.70;;;9.32;;
33952;SDS011;20231;42.710;23.280;2022-12-05T06:09:53;20.13;;;9.60;;
33952;SDS011;20231;42.710;23.280;2022-12-05T06:12:18;20.42;;;9.30;;
33952;SDS011;20231;42.710;23.280;2022-12-05T06:14:45;17.42;;;9.63;;
33952;SDS011;20231;42.710;23.280;2022-12-05T06:17:11;23.75;;;9.40;;
33952;SDS011;20231;42.710;23.280;2022-12-05T06:19:37;19.85;;;10.52;;
33952;SDS011;20231;42.710;23.280;2022-12-05T06:22:02;18.88;;;10.10;;
33952;SDS011;20231;42.710;23.280;2022-12-05T06:24:27;21.23;;;10.23;;
33952;SDS011;20231;42.710;23.280;2022-12-05T06:26:53;18.98;;;10.50;;
33952;SDS011;20231;42.710;23.280;2022-12-05T06:29:18;17.70;;;9.30;;
33952;SDS011;20231;42.710;23.280;2022-12-05T06:31:43;17.02;;;9.52;;
33952;SDS011;20231;42.710;23.280;2022-12-05T06:34:09;20.67;;;9.35;;
33952;SDS011;20231;42.710;23.280;2022-12-05T06:36:34;20.00;;;10.10;;
33952;SDS011;20231;42.710;23.280;2022-12-05T06:39:00;20.02;;;8.90;;
33952;SDS011;20231;42.710;23.280;2022-12-05T06:41:25;18.52;;;9.85;;
33952;SDS011;20231;42.710;23.280;2022-12-05T06:43:55;18.13;;;9.60;;
33952;SDS011;20231;42.710;23.280;2022-12-05T06:46:23;18.55;;;9.38;;
33952;SDS011;20231;42.710;23.280;2022-12-05T06:48:52;18.55;;;9.77;;
33952;SDS011;20231;42.710;23.280;2022-12-05T06:51:19;15.85;;;9.05;;
33952;SDS011;20231;42.710;23.280;2022-12-05T06:53:44;17.20;;;9.25;;
33952;SDS011;20231;42.710;23.280;2022-12-05T06:56:11;16.77;;;9.00;;
33952;SDS011;20231;42.710;23.280;2022-12-05T06:58:38;16.45;;;9.48;;
33952;SDS011;20231;42.710;23.280;2022-12-05T07:01:08;18.67;;;9.77;;
33952;SDS011;20231;42.710;23.280;2022-12-05T07:03:54;20.88;;;9.88;;
33952;SDS011;20231;42.710;23.280;2022-12-05T07:06:19;21.75;;;9.43;;
33952;SDS011;20231;42.710;23.280;2022-12-05T07:08:44;21.55;;;10.43;;
33952;SDS011;20231;42.710;23.280;2022-12-05T07:11:11;19.92;;;9.05;;
33952;SDS011;20231;42.710;23.280;2022-12-05T07:13:36;16.60;;;8.80;;
33952;SDS011;20231;42.710;23.280;2022-12-05T07:16:02;15.15;;;9.05;;
33952;SDS011;20231;42.710;23.280;2022-12-05T07:18:30;17.00;;;8.50;;
33952;SDS011;20231;42.710;23.280;2022-12-05T07:20:57;13.88;;;8.05;;
33952;SDS011;20231;42.710;23.280;2022-12-05T07:23:24;18.15;;;8.77;;
33952;SDS011;20231;42.710;23.280;2022-12-05T07:25:50;15.80;;;7.47;;
33952;SDS011;20231;42.710;23.280;2022-12-05T07:28:15;21.02;;;9.25;;
33952;SDS011;20231;42.710;23.280;2022-12-05T07:30:41;14.75;;;8.10;;
33952;SDS011;20231;42.710;23.280;2022-12-05T07:33:06;16.02;;;9.18;;
33952;SDS011;20231;42.710;23.280;2022-12-05T07:35:31;14.48;;;7.53;;
33952;SDS011;20231;42.710;23.280;2022-12-05T07:37:58;13.10;;;7.82;;
33952;SDS011;20231;42.710;23.280;2022-12-05T07:40:23;15.65;;;8.20;;
33952;SDS011;20231;42.710;23.280;2022-12-05T07:42:49;12.98;;;8.00;;
33952;SDS011;20231;42.710;23.280;2022-12-05T07:45:15;15.30;;;8.32;;
33952;SDS011;20231;42.710;23.280;2022-12-05T07:47:40;13.77;;;8.48;;
33952;SDS011;20231;42.710;23.280;2022-12-05T07:50:06;22.05;;;9.32;;
33952;SDS011;20231;42.710;23.280;2022-12-05T07:52:31;15.60;;;9.73;;
33952;SDS011;20231;42.710;23.280;2022-12-05T07:54:57;17.88;;;9.48;;
33952;SDS011;20231;42.710;23.280;2022-12-05T07:57:22;15.98;;;9.48;;
33952;SDS011;20231;42.710;23.280;2022-12-05T07:59:48;16.75;;;9.50;;
33952;SDS011;20231;42.710;23.280;2022-12-05T08:02:13;22.85;;;9.38;;
33952;SDS011;20231;42.710;23.280;2022-12-05T08:04:39;17.40;;;9.98;;
33952;SDS011;20231;42.710;23.280;2022-12-05T08:07:04;18.88;;;9.88;;
33952;SDS011;20231;42.710;23.280;2022-12-05T08:09:29;18.92;;;10.38;;
33952;SDS011;20231;42.710;23.280;2022-12-05T08:11:55;20.77;;;9.90;;
33952;SDS011;20231;42.710;23.280;2022-12-05T08:14:20;15.52;;;8.82;;
33952;SDS011;20231;42.710;23.280;2022-12-05T08:16:46;15.55;;;10.07;;
33952;SDS011;20231;42.710;23.280;2022-12-05T08:19:11;19.45;;;8.73;;
33952;SDS011;20231;42.710;23.280;2022-12-05T08:21:37;24.08;;;11.13;;
33952;SDS011;20231;42.710;23.280;2022-12-05T08:24:04;25.17;;;10.90;;
33952;SDS011;20231;42.710;23.280;2022-12-05T08:26:30;22.20;;;11.35;;
33952;SDS011;20231;42.710;23.280;2022-12-05T08:29:00;20.13;;;10.02;;
33952;SDS011;20231;42.710;23.280;2022-12-05T08:31:33;20.77;;;10.38;;
33952;SDS011;20231;42.710;23.280;2022-12-05T08:34:03;21.10;;;10.48;;
33952;SDS011;20231;42.710;23.280;2022-12-05T08:36:29;21.20;;;11.13;;
33952;SDS011;20231;42.710;23.280;2022-12-05T08:38:55;19.52;;;10.90;;
33952;SDS011;20231;42.710;23.280;2022-12-05T08:41:22;14.77;;;9.55;;
33952;SDS011;20231;42.710;23.280;2022-12-05T08:43:52;15.02;;;9.13;;
33952;SDS011;20231;42.710;23.280;2022-12-05T08:46:17;17.73;;;9.90;;
33952;SDS011;20231;42.710;23.280;2022-12-05T08:48:43;19.85;;;10.18;;
33952;SDS011;20231;42.710;23.280;2022-12-05T08:51:09;22.90;;;9.93;;
33952;SDS011;20231;42.710;23.280;2022-12-05T08:53:36;20.20;;;9.52;;
33952;SDS011;20231;42.710;23.280;2022-12-05T08:56:03;18.38;;;8.70;;
33952;SDS011;20231;42.710;23.280;2022-12-05T08:58:29;16.13;;;8.77;;
33952;SDS011;20231;42.710;23.280;2022-12-05T09:03:34;14.85;;;7.70;;
33952;SDS011;20231;42.710;23.280;2022-12-05T09:08:31;11.45;;;6.65;;
33952;SDS011;20231;42.710;23.280;2022-12-05T09:10:56;12.63;;;6.55;;
33952;SDS011;20231;42.710;23.280;2022-12-05T09:13:22;12.23;;;7.43;;
33952;SDS011;20231;42.710;23.280;2022-12-05T09:15:48;15.60;;;8.63;;
33952;SDS011;20231;42.710;23.280;2022-12-05T09:18:13;13.05;;;7.55;;
33952;SDS011;20231;42.710;23.280;2022-12-05T09:20:39;14.20;;;7.65;;
33952;SDS011;20231;42.710;23.280;2022-12-05T09:23:05;11.88;;;7.28;;
33952;SDS011;20231;42.710;23.280;2022-12-05T09:25:31;14.73;;;8.00;;
33952;SDS011;20231;42.710;23.280;2022-12-05T09:27:56;12.27;;;7.88;;
33952;SDS011;20231;42.710;23.280;2022-12-05T09:30:22;11.20;;;6.82;;
33952;SDS011;20231;42.710;23.280;2022-12-05T09:32:47;13.35;;;8.23;;
33952;SDS011;20231;42.710;23.280;2022-12-05T09:35:12;11.60;;;6.82;;
33952;SDS011;20231;42.710;23.280;2022-12-05T09:37:38;14.88;;;7.68;;
33952;SDS011;20231;42.710;23.280;2022-12-05T09:40:03;14.10;;;7.15;;
33952;SDS011;20231;42.710;23.280;2022-12-05T09:42:33;12.88;;;7.57;;
33952;SDS011;20231;42.710;23.280;2022-12-05T09:47:50;13.55;;;8.25;;
33952;SDS011;20231;42.710;23.280;2022-12-05T09:50:28;13.25;;;7.80;;
33952;SDS011;20231;42.710;23.280;2022-12-05T10:07:19;16.83;;;8.45;;
33952;SDS011;20231;42.710;23.280;2022-12-05T10:21:09;13.82;;;7.88;;
33952;SDS011;20231;42.710;23.280;2022-12-05T10:23:52;13.10;;;6.55;;
33952;SDS011;20231;42.710;23.280;2022-12-05T10:26:21;13.77;;;7.30;;
33952;SDS011;20231;42.710;23.280;2022-12-05T10:28:50;12.32;;;6.95;;
33952;SDS011;20231;42.710;23.280;2022-12-05T10:31:24;12.63;;;7.28;;
33952;SDS011;20231;42.710;23.280;2022-12-05T10:33:56;15.05;;;8.15;;
33952;SDS011;20231;42.710;23.280;2022-12-05T10:36:27;12.30;;;7.60;;
33952;SDS011;20231;42.710;23.280;2022-12-05T10:38:52;11.25;;;7.43;;
33952;SDS011;20231;42.710;23.280;2022-12-05T10:41:18;19.52;;;7.80;;
33952;SDS011;20231;42.710;23.280;2022-12-05T10:43:44;16.17;;;7.63;;
33952;SDS011;20231;42.710;23.280;2022-12-05T10:46:13;16.77;;;8.95;;
33952;SDS011;20231;42.710;23.280;2022-12-05T10:48:40;15.38;;;9.23;;
33952;SDS011;20231;42.710;23.280;2022-12-05T10:51:10;14.45;;;8.70;;
33952;SDS011;20231;42.710;23.280;2022-12-05T10:53:47;16.85;;;9.60;;
33952;SDS011;20231;42.710;23.280;2022-12-05T10:59:00;18.58;;;8.50;;
33952;SDS011;20231;42.710;23.280;2022-12-05T11:01:25;13.70;;;8.38;;
33952;SDS011;20231;42.710;23.280;2022-12-05T11:03:58;18.38;;;8.18;;
33952;SDS011;20231;42.710;23.280;2022-12-05T11:06:26;13.25;;;7.57;;
33952;SDS011;20231;42.710;23.280;2022-12-05T11:08:55;12.90;;;7.10;;
33952;SDS011;20231;42.710;23.280;2022-12-05T11:13:58;13.25;;;7.95;;
33952;SDS011;20231;42.710;23.280;2022-12-05T11:16:33;12.93;;;8.18;;
33952;SDS011;20231;42.710;23.280;2022-12-05T11:19:35;13.18;;;7.80;;
33952;SDS011;20231;42.710;23.280;2022-12-05T11:21:55;19.92;;;8.77;;
33952;SDS011;20231;42.710;23.280;2022-12-05T11:24:23;11.88;;;7.97;;
33952;SDS011;20231;42.710;23.280;2022-12-05T11:26:52;16.20;;;8.55;;
33952;SDS011;20231;42.710;23.280;2022-12-05T11:29:37;13.57;;;8.35;;
33952;SDS011;20231;42.710;23.280;2022-12-05T11:32:04;13.10;;;8.35;;
33952;SDS011;20231;42.710;23.280;2022-12-05T11:34:41;16.00;;;8.52;;
33952;SDS011;20231;42.710;23.280;2022-12-05T11:37:24;14.10;;;8.20;;
33952;SDS011;20231;42.710;23.280;2022-12-05T11:39:53;15.38;;;8.30;;
33952;SDS011;20231;42.710;23.280;2022-12-05T11:54:26;14.65;;;9.07;;
33952;SDS011;20231;42.710;23.280;2022-12-05T11:56:59;13.18;;;8.48;;
33952;SDS011;20231;42.710;23.280;2022-12-05T12:07:38;21.40;;;11.50;;
33952;SDS011;20231;42.710;23.280;2022-12-05T12:15:48;16.95;;;9.65;;
33952;SDS011;20231;42.710;23.280;2022-12-05T12:26:27;20.88;;;9.65;;
33952;SDS011;20231;42.710;23.280;2022-12-05T12:29:30;14.05;;;8.77;;
33952;SDS011;20231;42.710;23.280;2022-12-05T12:32:26;15.27;;;9.65;;
33952;SDS011;20231;42.710;23.280;2022-12-05T12:40:47;19.58;;;9.45;;
33952;SDS011;20231;42.710;23.280;2022-12-05T12:45:55;18.35;;;9.98;;
33952;SDS011;20231;42.710;23.280;2022-12-05T12:51:31;16.73;;;9.90;;
33952;SDS011;20231;42.710;23.280;2022-12-05T12:56:34;18.40;;;9.63;;
33952;SDS011;20231;42.710;23.280;2022-12-05T13:02:21;18.08;;;10.05;;
33952;SDS011;20231;42.710;23.280;2022-12-05T13:04:59;20.08;;;11.35;;
33952;SDS011;20231;42.710;23.280;2022-12-05T13:07:39;21.55;;;10.90;;
33952;SDS011;20231;42.710;23.280;2022-12-05T13:10:31;19.52;;;11.05;;
33952;SDS011;20231;42.710;23.280;2022-12-05T13:13:00;23.17;;;11.95;;
33952;SDS011;20231;42.710;23.280;2022-12-05T13:18:25;22.55;;;12.02;;
33952;SDS011;20231;42.710;23.280;2022-12-05T13:20:52;20.15;;;12.05;;
33952;SDS011;20231;42.710;23.280;2022-12-05T13:23:21;21.02;;;11.15;;
33952;SDS011;20231;42.710;23.280;2022-12-05T13:25:50;18.67;;;11.10;;
33952;SDS011;20231;42.710;23.280;2022-12-05T13:28:31;17.83;;;10.85;;
33952;SDS011;20231;42.710;23.280;2022-12-05T13:31:06;20.67;;;11.98;;
33952;SDS011;20231;42.710;23.280;2022-12-05T13:33:43;28.17;;;12.80;;
33952;SDS011;20231;42.710;23.280;2022-12-05T13:36:11;20.83;;;12.15;;
33952;SDS011;20231;42.710;23.280;2022-12-05T13:38:58;25.60;;;12.13;;
33952;SDS011;20231;42.710;23.280;2022-12-05T13:41:48;19.88;;;11.60;;
33952;SDS011;20231;42.710;23.280;2022-12-05T13:47:03;20.95;;;12.10;;
33952;SDS011;20231;42.710;23.280;2022-12-05T13:52:13;24.90;;;11.98;;
33952;SDS011;20231;42.710;23.280;2022-12-05T13:54:52;20.80;;;13.70;;
33952;SDS011;20231;42.710;23.280;2022-12-05T14:10:14;23.55;;;13.55;;
33952;SDS011;20231;42.710;23.280;2022-12-05T14:15:41;25.48;;;13.77;;
33952;SDS011;20231;42.710;23.280;2022-12-05T14:23:23;23.77;;;12.95;;
33952;SDS011;20231;42.710;23.280;2022-12-05T14:34:57;25.55;;;13.27;;
33952;SDS011;20231;42.710;23.280;2022-12-05T14:37:35;26.00;;;14.05;;
33952;SDS011;20231;42.710;23.280;2022-12-05T14:42:52;26.95;;;14.60;;
33952;SDS011;20231;42.710;23.280;2022-12-05T14:47:54;27.83;;;15.05;;
33952;SDS011;20231;42.710;23.280;2022-12-05T14:50:43;30.98;;;15.32;;
33952;SDS011;20231;42.710;23.280;2022-12-05T14:53:13;28.08;;;14.43;;
33952;SDS011;20231;42.710;23.280;2022-12-05T14:55:43;26.15;;;14.70;;
33952;SDS011;20231;42.710;23.280;2022-12-05T14:58:25;25.10;;;13.40;;
33952;SDS011;20231;42.710;23.280;2022-12-05T15:03:36;28.17;;;14.55;;
33952;SDS011;20231;42.710;23.280;2022-12-05T15:06:05;25.88;;;14.65;;
33952;SDS011;20231;42.710;23.280;2022-12-05T15:08:44;29.30;;;15.13;;
33952;SDS011;20231;42.710;23.280;2022-12-05T15:11:15;25.73;;;14.60;;
33952;SDS011;20231;42.710;23.280;2022-12-05T15:13:53;27.67;;;14.75;;
33952;SDS011;20231;42.710;23.280;2022-12-05T15:16:25;31.02;;;15.15;;
33952;SDS011;20231;42.710;23.280;2022-12-05T15:18:55;30.73;;;13.80;;
33952;SDS011;20231;42.710;23.280;2022-12-05T15:21:37;29.60;;;14.02;;
33952;SDS011;20231;42.710;23.280;2022-12-05T15:26:46;23.92;;;14.18;;
33952;SDS011;20231;42.710;23.280;2022-12-05T15:31:56;28.15;;;15.63;;
33952;SDS011;20231;42.710;23.280;2022-12-05T15:42:26;26.25;;;13.85;;
33952;SDS011;20231;42.710;23.280;2022-12-05T15:47:48;28.92;;;14.88;;
33952;SDS011;20231;42.710;23.280;2022-12-05T15:50:15;26.00;;;13.80;;
33952;SDS011;20231;42.710;23.280;2022-12-05T15:53:13;25.88;;;12.90;;
33952;SDS011;20231;42.710;23.280;2022-12-05T15:56:06;24.58;;;13.60;;
33952;SDS011;20231;42.710;23.280;2022-12-05T16:06:48;24.67;;;14.07;;
33952;SDS011;20231;42.710;23.280;2022-12-05T16:09:17;26.33;;;14.27;;
33952;SDS011;20231;42.710;23.280;2022-12-05T16:11:56;28.85;;;14.80;;
33952;SDS011;20231;42.710;23.280;2022-12-05T16:14:25;27.35;;;14.25;;
33952;SDS011;20231;42.710;23.280;2022-12-05T16:16:55;27.90;;;14.82;;
33952;SDS011;20231;42.710;23.280;2022-12-05T16:19:25;23.05;;;13.35;;
33952;SDS011;20231;42.710;23.280;2022-12-05T16:21:59;23.58;;;13.88;;
33952;SDS011;20231;42.710;23.280;2022-12-05T16:24:28;22.98;;;12.80;;
33952;SDS011;20231;42.710;23.280;2022-12-05T16:29:30;20.98;;;13.23;;
33952;SDS011;20231;42.710;23.280;2022-12-05T16:31:58;23.73;;;13.25;;
33952;SDS011;20231;42.710;23.280;2022-12-05T16:34:25;24.85;;;14.48;;
33952;SDS011;20231;42.710;23.280;2022-12-05T16:36:52;30.73;;;14.02;;
33952;SDS011;20231;42.710;23.280;2022-12-05T16:39:20;28.52;;;14.13;;
33952;SDS011;20231;42.710;23.280;2022-12-05T16:41:47;25.70;;;13.70;;
33952;SDS011;20231;42.710;23.280;2022-12-05T16:46:52;21.85;;;12.98;;
33952;SDS011;20231;42.710;23.280;2022-12-05T16:49:23;21.55;;;12.20;;
33952;SDS011;20231;42.710;23.280;2022-12-05T16:54:33;24.85;;;12.85;;
33952;SDS011;20231;42.710;23.280;2022-12-05T16:57:00;22.92;;;12.00;;
33952;SDS011;20231;42.710;23.280;2022-12-05T16:59:29;18.92;;;11.45;;
33952;SDS011;20231;42.710;23.280;2022-12-05T17:01:55;20.42;;;12.10;;
33952;SDS011;20231;42.710;23.280;2022-12-05T17:04:21;21.83;;;11.65;;
33952;SDS011;20231;42.710;23.280;2022-12-05T17:06:46;21.60;;;12.20;;
33952;SDS011;20231;42.710;23.280;2022-12-05T17:09:11;16.05;;;10.82;;
33952;SDS011;20231;42.710;23.280;2022-12-05T17:11:38;29.02;;;12.13;;
33952;SDS011;20231;42.710;23.280;2022-12-05T17:14:07;27.08;;;11.82;;
33952;SDS011;20231;42.710;23.280;2022-12-05T17:16:38;16.58;;;10.35;;
33952;SDS011;20231;42.710;23.280;2022-12-05T17:19:04;19.25;;;10.98;;
33952;SDS011;20231;42.710;23.280;2022-12-05T17:21:30;20.83;;;11.20;;
33952;SDS011;20231;42.710;23.280;2022-12-05T17:23:57;18.45;;;10.90;;
33952;SDS011;20231;42.710;23.280;2022-12-05T17:26:23;16.63;;;10.43;;
33952;SDS011;20231;42.710;23.280;2022-12-05T17:28:48;17.17;;;11.32;;
33952;SDS011;20231;42.710;23.280;2022-12-05T17:31:15;18.98;;;11.38;;
33952;SDS011;20231;42.710;23.280;2022-12-05T17:33:42;22.58;;;12.30;;
33952;SDS011;20231;42.710;23.280;2022-12-05T17:36:08;19.00;;;11.38;;
33952;SDS011;20231;42.710;23.280;2022-12-05T17:38:34;18.75;;;11.68;;
33952;SDS011;20231;42.710;23.280;2022-12-05T17:40:59;22.15;;;11.50;;
33952;SDS011;20231;42.710;23.280;2022-12-05T17:43:25;22.23;;;13.00;;
33952;SDS011;20231;42.710;23.280;2022-12-05T17:45:50;23.50;;;12.52;;
33952;SDS011;20231;42.710;23.280;2022-12-05T17:48:16;25.08;;;13.07;;
33952;SDS011;20231;42.710;23.280;2022-12-05T17:50:44;19.80;;;12.15;;
33952;SDS011;20231;42.710;23.280;2022-12-05T17:53:18;26.40;;;13.18;;
33952;SDS011;20231;42.710;23.280;2022-12-05T17:55:44;28.35;;;12.82;;
33952;SDS011;20231;42.710;23.280;2022-12-05T17:58:14;24.65;;;12.18;;
33952;SDS011;20231;42.710;23.280;2022-12-05T18:00:40;25.17;;;13.32;;
33952;SDS011;20231;42.710;23.280;2022-12-05T18:03:09;22.27;;;13.15;;
33952;SDS011;20231;42.710;23.280;2022-12-05T18:05:37;26.55;;;14.18;;